Flight Track Log - Related Links

Times and Time Zones

All times are in EDT time to prevent confusion due to time zone crossing. See the SWA216 flight status page for this flight to view local times or setup timezone preferences in your user account.

Time Position Orientation Groundspeed Altitude Reporting Facility
EDT Latitude Longitude Course Direction KTS MPH feet Rate Location/Type
Wed 09:19:24 AM 31.8033 -106.3975 167° South 159 183 4,600  Level Albuquerque Center
Wed 09:20:07 AM 31.7742 -106.3897 167° South 192 221 5,900 1,950 Climbing Albuquerque Center
Wed 09:20:44 AM 31.7556 -106.3597 126° Southeast 218 251 7,200 2,571 Climbing Albuquerque Center
Wed 09:21:45 AM 31.7117 -106.2944 128° Southeast 264 304 10,100 3,000 Climbing Albuquerque Center
Wed 09:22:46 AM 31.6717 -106.2000 116° Southeast 322 371 13,300 3,787 Climbing Albuquerque Center
Wed 09:23:47 AM 31.6133 -106.0781 119° Southeast 357 411 17,800 3,639 Climbing Albuquerque Center
Wed 09:24:48 AM 31.5619 -105.9747 120° Southeast 365 420 20,700 2,754 Climbing Albuquerque Center
Wed 09:25:49 AM 31.5006 -105.8719 125° Southeast 386 444 23,400 2,537 Climbing Albuquerque Center
Wed 09:26:51 AM 31.4603 -105.7478 111° Southeast 411 473 25,900 2,244 Climbing Albuquerque Center
Wed 09:27:52 AM 31.4364 -105.6122 102° East 423 487 28,000 2,066 Climbing Albuquerque Center
Wed 09:28:53 AM 31.4119 -105.4703 101° East 442 509 30,100 1,967 Climbing Albuquerque Center
Wed 09:29:54 AM 31.3864 -105.3239 102° East 455 524 32,000 2,016 Climbing Albuquerque Center
Wed 09:30:55 AM 31.3619 -105.1756 101° East 459 528 34,200 1,770 Climbing Albuquerque Center
Wed 09:31:56 AM 31.3361 -105.0281 102° East 460 529 35,600 1,512 Climbing Albuquerque Center
Wed 09:32:58 AM 31.3092 -104.8775 102° East 466 536 37,300 1,756 Climbing Albuquerque Center
Wed 09:33:59 AM 31.2817 -104.7272 102° East 469 540 39,200 1,770 Climbing Albuquerque Center
Wed 09:35:00 AM 31.2567 -104.5850 102° East 449 517 40,900 885 Climbing Albuquerque Center
Wed 09:36:01 AM 31.2325 -104.4469 102° East 437 503 41,000 49 Climbing Albuquerque Center
Wed 09:37:03 AM 31.2072 -104.3097 102° East 432 497 41,000  Level Albuquerque Center
Wed 09:38:04 AM 31.1753 -104.1444 103° East 433 498 41,000  Level Albuquerque Center
Wed 09:39:05 AM 31.1497 -104.0067 102° East 434 499 41,000  Level Albuquerque Center
Wed 09:40:07 AM 31.1264 -103.8667 101° East 440 506 41,000  Level Albuquerque Center
Wed 09:41:08 AM 31.1208 -103.7322 93° East 444 511 41,000  Level Albuquerque Center
Wed 09:42:09 AM 31.1128 -103.5881 94° East 444 511 41,000  Level Albuquerque Center
Wed 09:43:11 AM 31.1047 -103.4164 93° East 443 510 41,000  Level Albuquerque Center
Wed 09:44:12 AM 31.0969 -103.2742 94° East 441 507 41,000  Level Albuquerque Center
Wed 09:45:13 AM 31.0897 -103.1319 93° East 441 507 41,000  Level Albuquerque Center
Wed 09:46:15 AM 31.0825 -102.9922 93° East 436 502 41,000  Level Albuquerque Center
Wed 09:47:16 AM 31.0758 -102.8528 93° East 434 499 41,000  Level Albuquerque Center
Wed 09:48:18 AM 31.0683 -102.7136 94° East 434 499 41,000  Level Albuquerque Center
Wed 09:49:19 AM 31.0600 -102.5750 94° East 433 498 41,000  Level Albuquerque Center
Wed 09:50:20 AM 31.0536 -102.4361 93° East 435 501 41,000  Level Albuquerque Center
Wed 09:51:22 AM 31.0447 -102.2719 94° East 427 491 41,000  Level Albuquerque Center
Wed 09:52:23 AM 31.0364 -102.1361 94° East 424 488 41,000  Level Albuquerque Center
Wed 09:53:25 AM 31.0281 -101.9981 94° East 427 491 41,000  Level Albuquerque Center
Wed 09:54:26 AM 31.0203 -101.8636 94° East 429 494 41,000  Level Albuquerque Center
Wed 09:55:28 AM 31.0117 -101.7272 94° East 426 490 41,000  Level Albuquerque Center
Wed 09:56:42 AM 30.9992 -101.5344 94° East 428 493 41,000  Level Houston Center
Wed 09:57:45 AM 30.9903 -101.3950 94° East 432 497 41,000  Level Houston Center
Wed 09:58:47 AM 30.9808 -101.2489 94° East 429 494 41,000  Level Houston Center
Wed 09:59:49 AM 30.9719 -101.1072 94° East 435 501 41,000  Level Houston Center
Wed 10:00:51 AM 30.9631 -100.9669 94° East 436 502 41,000  Level Houston Center
Wed 10:01:53 AM 30.9536 -100.8247 94° East 438 504 41,000  Level Houston Center
Wed 10:02:55 AM 30.9439 -100.6836 95° East 438 504 41,000  Level Houston Center
Wed 10:03:57 AM 30.9342 -100.5433 95° East 434 499 41,000  Level Houston Center
Wed 10:04:59 AM 30.9217 -100.3761 95° East 431 496 41,000  Level Houston Center
Wed 10:06:02 AM 30.9119 -100.2369 95° East 430 495 41,000  Level Houston Center
Wed 10:07:04 AM 30.9019 -100.0989 95° East 428 493 41,000  Level Houston Center
Wed 10:08:06 AM 30.8917 -99.9600 95° East 429 494 41,000 -194 Level Houston Center
Wed 10:09:08 AM 30.8819 -99.8219 95° East 428 493 40,600 -1,403 Descending Houston Center
Wed 10:10:10 AM 30.8703 -99.6869 96° East 420 483 38,100 -2,516 Descending Houston Center
Wed 10:11:12 AM 30.8608 -99.5500 95° East 424 488 35,400 -2,903 Descending Houston Center
Wed 10:12:14 AM 30.8633 -99.3769 89° East 448 516 32,100 -2,613 Descending Houston Center
Wed 10:13:16 AM 30.8808 -99.2386 82° East 436 502 30,000 -1,887 Descending Houston Center
Wed 10:14:18 AM 30.8972 -99.1111 81° East 417 480 28,200 -2,112 Descending Houston Center
Wed 10:15:21 AM 30.9061 -98.9819 85° East 399 459 25,600 -2,400 Descending Houston Center
Wed 10:16:23 AM 30.8789 -98.8369 102° East 388 447 23,200 -2,129 Descending Houston Center
Wed 10:17:25 AM 30.8542 -98.7175 104° East 377 434 21,200 -1,887 Descending Houston Center
Wed 10:18:27 AM 30.8317 -98.6044 103° East 362 417 19,300 -1,839 Descending Houston Center
Wed 10:19:29 AM 30.8089 -98.4933 103° East 352 405 17,400 -1,887 Descending Houston Center
Wed 10:20:31 AM 30.7858 -98.3856 104° East 342 394 15,400 -1,887 Descending Houston Center
Wed 10:21:33 AM 30.7642 -98.2797 103° East 335 386 13,500 -1,964 Descending Houston Center
Wed 10:22:21 AM 30.7450 -98.1869 103° East 324 373 11,800 -1,776 Descending Houston Center
Wed 10:23:38 AM 30.7061 -98.0656 110° East 320 368 9,800 -1,381 Descending Houston Center
Wed 10:24:40 AM 30.6497 -97.9983 134° Southeast 290 334 8,600 -1,448 Descending Houston Center
Wed 10:25:34 AM 30.5994 -97.9394 135° Southeast 275 316 7,000 -1,548 Descending Houston Center
Wed 10:26:44 AM 30.5394 -97.8739 137° Southeast 275 316 5,400 -1,364 Descending Houston Center
Wed 10:27:46 AM 30.4878 -97.8133 135° Southeast 267 307 4,000 -1,113 Descending Houston Center
Wed 10:28:48 AM 30.4408 -97.7519 132° Southeast 259 298 3,100 -484 Descending Houston Center
Wed 10:29:50 AM 30.3842 -97.6958 139° Southeast 242 278 3,000 -145 Descending Houston Center
Wed 10:30:52 AM 30.3406 -97.6828 166° South 190 219 2,800 -435 Descending Houston Center
Wed 10:31:54 AM 30.2964 -97.6814 178° South 166 191 2,100 -672 Descending Houston Center
Wed 10:32:57 AM 30.2567 -97.6803 179° South 151 174 1,400 -713 Descending Houston Center
Wed 10:33:35 AM 30.2339 -97.6803 180° South 123 142 900 -789 Descending Houston Center
Wed 10:35:00 AM 30.1945 -97.6699 221° Southwest  Level Estimated
Wed 10:42:00 AM 30.1945 -97.6699 221° Southwest  Level Estimated

Login

Don't have an account? Register now (free) for customized features, flight alerts, and more!